^^
Cohasset Weather Station Historical Data
Daily Summary for May 22, 2019 Units:  Both    English   Metric
Daily Weekly Monthly Yearly Custom
  High: Low: Average:
Temperature: 64.4 °F /  18 °C 39 °F /  3.9 °C 51.4 °F /  10.8 °C
Dew Point: 49 °F /  9.4 °C 38.7 °F /  3.7 °C 43.7 °F /  6.5 °C
Humidity: 99% 46% 77%
Wind Speed: 9.2mph /  14.8km/h - 1.6mph /  2.6km/h
Wind Gust: 5.8mph /  9.3km/h - -
Wind- - South
Pressure: 29.88 in /  1011.7 hPa 29.82 in /  1009.7 hPa -
Precipitation: 0 in /  0 mm    
Historical Graphs
 
 
Tabular Data for May 22, 2019
Time Temperature Dew Point Pressure Wind Wind Speed Wind Gust Humidity Rainfall Rate (Hourly) solar
00:04 41.9 °F /  5.5 °C 41.6 °F /  5.3 °C 29.83in /  1010hPa Calm     99% 0in /  0mm WeatherDisplay:10.37 W/m2
00:09 41.5 °F /  5.3 °C 41.2 °F /  5.1 °C 29.82in /  1009.7hPa Calm     99% 0in /  0mm WeatherDisplay:10.37 W/m2
00:14 41.4 °F /  5.2 °C 40.9 °F /  4.9 °C 29.82in /  1009.7hPa Calm     98% 0in /  0mm WeatherDisplay:10.37 W/m2
00:19 41.2 °F /  5.1 °C 40.7 °F /  4.8 °C 29.82in /  1009.7hPa Calm     98% 0in /  0mm WeatherDisplay:10.37 W/m2
00:24 41 °F /  5 °C 40.5 °F /  4.7 °C 29.82in /  1009.7hPa Calm     98% 0in /  0mm WeatherDisplay:10.37 W/m2
00:29 41 °F /  5 °C 40.5 °F /  4.7 °C 29.83in /  1010hPa Calm     98% 0in /  0mm WeatherDisplay:10.37 W/m2
00:34 40.8 °F /  4.9 °C 40 °F /  4.4 °C 29.83in /  1010hPa Calm     97% 0in /  0mm WeatherDisplay:10.37 W/m2
00:39 40.8 °F /  4.9 °C 40.3 °F /  4.6 °C 29.83in /  1010hPa Calm     98% 0in /  0mm WeatherDisplay:10.37 W/m2
00:44 40.6 °F /  4.8 °C 40.1 °F /  4.5 °C 29.83in /  1010hPa Calm     98% 0in /  0mm WeatherDisplay:10.37 W/m2
00:49 40.6 °F /  4.8 °C 40.1 °F /  4.5 °C 29.83in /  1010hPa Calm     98% 0in /  0mm WeatherDisplay:10.37 W/m2
00:54 40.5 °F /  4.7 °C 40 °F /  4.4 °C 29.82in /  1009.7hPa Calm     98% 0in /  0mm WeatherDisplay:10.37 W/m2
00:59 40.5 °F /  4.7 °C 40.2 °F /  4.6 °C 29.82in /  1009.7hPa Calm     99% 0in /  0mm WeatherDisplay:10.37 W/m2
01:04 40.3 °F /  4.6 °C 40 °F /  4.4 °C 29.82in /  1009.7hPa Calm     99% 0in /  0mm WeatherDisplay:10.37 W/m2
01:09 40.1 °F /  4.5 °C 39.8 °F /  4.3 °C 29.82in /  1009.7hPa Calm     99% 0in /  0mm WeatherDisplay:10.37 W/m2
01:14 40.1 °F /  4.5 °C 39.8 °F /  4.3 °C 29.82in /  1009.7hPa Calm     99% 0in /  0mm WeatherDisplay:10.37 W/m2
01:19 39.9 °F /  4.4 °C 39.6 °F /  4.2 °C 29.82in /  1009.7hPa Calm     99% 0in /  0mm WeatherDisplay:10.37 W/m2
01:24 39.7 °F /  4.3 °C 39.4 °F /  4.1 °C 29.82in /  1009.7hPa Calm     99% 0in /  0mm WeatherDisplay:10.37 W/m2
01:29 39.6 °F /  4.2 °C 39.3 °F /  4.1 °C 29.83in /  1010hPa Calm     99% 0in /  0mm WeatherDisplay:10.37 W/m2
01:34 39.6 °F /  4.2 °C 39.3 °F /  4.1 °C 29.83in /  1010hPa Calm     99% 0in /  0mm WeatherDisplay:10.37 W/m2
01:39 39.4 °F /  4.1 °C 39.1 °F /  3.9 °C 29.83in /  1010hPa Calm     99% 0in /  0mm WeatherDisplay:10.37 W/m2
01:44 39.2 °F /  4 °C 38.9 °F /  3.8 °C 29.83in /  1010hPa Calm     99% 0in /  0mm WeatherDisplay:10.37 W/m2
01:49 39.2 °F /  4 °C 38.9 °F /  3.8 °C 29.83in /  1010hPa Calm     99% 0in /  0mm WeatherDisplay:10.37 W/m2
01:54 39 °F /  3.9 °C 38.7 °F /  3.7 °C 29.83in /  1010hPa Calm     99% 0in /  0mm WeatherDisplay:10.37 W/m2
01:59 39 °F /  3.9 °C 38.7 °F /  3.7 °C 29.83in /  1010hPa Calm     99% 0in /  0mm WeatherDisplay:10.37 W/m2
02:04 39 °F /  3.9 °C 38.7 °F /  3.7 °C 29.83in /  1010hPa Calm     99% 0in /  0mm WeatherDisplay:10.37 W/m2
02:09 39 °F /  3.9 °C 38.7 °F /  3.7 °C 29.83in /  1010hPa Calm     99% 0in /  0mm WeatherDisplay:10.37 W/m2
02:14 39.2 °F /  4 °C 38.9 °F /  3.8 °C 29.83in /  1010hPa Calm     99% 0in /  0mm WeatherDisplay:10.37 W/m2
02:19 39.2 °F /  4 °C 38.9 °F /  3.8 °C 29.83in /  1010hPa Calm     99% 0in /  0mm WeatherDisplay:10.37 W/m2
02:24 39.2 °F /  4 °C 38.9 °F /  3.8 °C 29.83in /  1010hPa Calm     99% 0in /  0mm WeatherDisplay:10.37 W/m2
02:29 39.2 °F /  4 °C 38.9 °F /  3.8 °C 29.83in /  1010hPa Calm     99% 0in /  0mm WeatherDisplay:10.37 W/m2
02:34 39.2 °F /  4 °C 38.9 °F /  3.8 °C 29.83in /  1010hPa Calm     99% 0in /  0mm WeatherDisplay:10.37 W/m2
02:39 39.2 °F /  4 °C 38.9 °F /  3.8 °C 29.83in /  1010hPa Calm     99% 0in /  0mm WeatherDisplay:10.37 W/m2
02:44 39.4 °F /  4.1 °C 39.1 °F /  3.9 °C 29.83in /  1010hPa Calm     99% 0in /  0mm WeatherDisplay:10.37 W/m2
02:49 39.4 °F /  4.1 °C 39.1 °F /  3.9 °C 29.83in /  1010hPa Calm     99% 0in /  0mm WeatherDisplay:10.37 W/m2
02:54 39.4 °F /  4.1 °C 39.1 °F /  3.9 °C 29.83in /  1010hPa Calm     99% 0in /  0mm WeatherDisplay:10.37 W/m2
02:59 39.4 °F /  4.1 °C 39.1 °F /  3.9 °C 29.83in /  1010hPa Calm     99% 0in /  0mm WeatherDisplay:10.37 W/m2
03:04 39.4 °F /  4.1 °C 39.1 °F /  3.9 °C 29.83in /  1010hPa Calm     99% 0in /  0mm WeatherDisplay:10.37 W/m2
03:09 39.4 °F /  4.1 °C 39.1 °F /  3.9 °C 29.83in /  1010hPa NNE 3.5mph /  5.6km/h 1.8mph /  2.9km/h 99% 0in /  0mm WeatherDisplay:10.37 W/m2
03:14 39.4 °F /  4.1 °C 39.1 °F /  3.9 °C 29.83in /  1010hPa Calm     99% 0in /  0mm WeatherDisplay:10.37 W/m2
03:19 39.4 °F /  4.1 °C 39.1 °F /  3.9 °C 29.83in /  1010hPa Calm     99% 0in /  0mm WeatherDisplay:10.37 W/m2
03:24 39.6 °F /  4.2 °C 39.3 °F /  4.1 °C 29.83in /  1010hPa Calm     99% 0in /  0mm WeatherDisplay:10.37 W/m2
03:29 39.7 °F /  4.3 °C 39.4 °F /  4.1 °C 29.83in /  1010hPa Calm     99% 0in /  0mm WeatherDisplay:10.37 W/m2
03:34 39.9 °F /  4.4 °C 39.6 °F /  4.2 °C 29.83in /  1010hPa NNE 3.5mph /  5.6km/h 2.6mph /  4.2km/h 99% 0in /  0mm WeatherDisplay:10.37 W/m2
03:39 39.9 °F /  4.4 °C 39.6 °F /  4.2 °C 29.83in /  1010hPa NW 2.2mph /  3.5km/h 1.4mph /  2.3km/h 99% 0in /  0mm WeatherDisplay:10.37 W/m2
03:44 39.9 °F /  4.4 °C 39.6 °F /  4.2 °C 29.83in /  1010hPa Calm     99% 0in /  0mm WeatherDisplay:10.37 W/m2
03:49 39.9 °F /  4.4 °C 39.6 °F /  4.2 °C 29.83in /  1010hPa NNE 2.3mph /  3.7km/h 0.9mph /  1.4km/h 99% 0in /  0mm WeatherDisplay:10.37 W/m2
03:54 39.9 °F /  4.4 °C 39.6 °F /  4.2 °C 29.83in /  1010hPa Calm     99% 0in /  0mm WeatherDisplay:10.37 W/m2
03:59 39.9 °F /  4.4 °C 39.6 °F /  4.2 °C 29.83in /  1010hPa Calm     99% 0in /  0mm WeatherDisplay:10.37 W/m2
04:04 39.9 °F /  4.4 °C 39.6 °F /  4.2 °C 29.83in /  1010hPa Calm     99% 0in /  0mm WeatherDisplay:10.37 W/m2
04:09 39.9 °F /  4.4 °C 39.6 °F /  4.2 °C 29.83in /  1010hPa Calm     99% 0in /  0mm WeatherDisplay:10.37 W/m2
04:14 39.9 °F /  4.4 °C 39.6 °F /  4.2 °C 29.83in /  1010hPa Calm     99% 0in /  0mm WeatherDisplay:10.37 W/m2
04:19 39.9 °F /  4.4 °C 39.6 °F /  4.2 °C 29.83in /  1010hPa Calm     99% 0in /  0mm WeatherDisplay:10.37 W/m2
04:24 39.9 °F /  4.4 °C 39.6 °F /  4.2 °C 29.83in /  1010hPa Calm     99% 0in /  0mm WeatherDisplay:10.37 W/m2
04:29 40.1 °F /  4.5 °C 39.8 °F /  4.3 °C 29.83in /  1010hPa NW 2.8mph /  4.5km/h 1.9mph /  3.1km/h 99% 0in /  0mm WeatherDisplay:10.37 W/m2
04:34 40.1 °F /  4.5 °C 39.8 °F /  4.3 °C 29.83in /  1010hPa Calm     99% 0in /  0mm WeatherDisplay:10.37 W/m2
04:39 40.1 °F /  4.5 °C 39.8 °F /  4.3 °C 29.83in /  1010hPa NNE 2.3mph /  3.7km/h   99% 0in /  0mm WeatherDisplay:10.37 W/m2
04:44 40.3 °F /  4.6 °C 40 °F /  4.4 °C 29.83in /  1010hPa Calm     99% 0in /  0mm WeatherDisplay:10.37 W/m2
04:49 40.3 °F /  4.6 °C 40 °F /  4.4 °C 29.83in /  1010hPa Calm     99% 0in /  0mm WeatherDisplay:10.37 W/m2
04:54 40.3 °F /  4.6 °C 40 °F /  4.4 °C 29.83in /  1010hPa Calm     99% 0in /  0mm WeatherDisplay:10.37 W/m2
04:59 40.3 °F /  4.6 °C 40 °F /  4.4 °C 29.83in /  1010hPa Calm     99% 0in /  0mm WeatherDisplay:10.37 W/m2
05:04 40.3 °F /  4.6 °C 40 °F /  4.4 °C 29.83in /  1010hPa NNE 3.5mph /  5.6km/h 2.9mph /  4.7km/h 99% 0in /  0mm WeatherDisplay:10.37 W/m2
05:09 40.3 °F /  4.6 °C 40 °F /  4.4 °C 29.83in /  1010hPa Calm     99% 0in /  0mm WeatherDisplay:10.37 W/m2
05:14 40.3 °F /  4.6 °C 40 °F /  4.4 °C 29.83in /  1010hPa Calm     99% 0in /  0mm WeatherDisplay:10.37 W/m2
05:19 40.3 °F /  4.6 °C 40 °F /  4.4 °C 29.83in /  1010hPa Calm     99% 0in /  0mm WeatherDisplay:10.37 W/m2
05:24 40.3 °F /  4.6 °C 40 °F /  4.4 °C 29.83in /  1010hPa Calm     99% 0in /  0mm WeatherDisplay:10.37 W/m2
05:29 40.3 °F /  4.6 °C 40 °F /  4.4 °C 29.83in /  1010hPa Calm     99% 0in /  0mm WeatherDisplay:10.37 W/m2
05:34 40.3 °F /  4.6 °C 40 °F /  4.4 °C 29.83in /  1010hPa Calm     99% 0in /  0mm WeatherDisplay:10.37 W/m2
05:39 40.3 °F /  4.6 °C 40 °F /  4.4 °C 29.83in /  1010hPa Calm     99% 0in /  0mm WeatherDisplay:10.37 W/m2
05:44 40.3 °F /  4.6 °C 40 °F /  4.4 °C 29.84in /  1010.4hPa Calm     99% 0in /  0mm WeatherDisplay:10.37 W/m2
05:49 40.3 °F /  4.6 °C 40 °F /  4.4 °C 29.84in /  1010.4hPa Calm     99% 0in /  0mm WeatherDisplay:10.37 W/m2
05:54 40.1 °F /  4.5 °C 39.8 °F /  4.3 °C 29.84in /  1010.4hPa Calm     99% 0in /  0mm WeatherDisplay:10.37 W/m2
05:59 40.1 °F /  4.5 °C 39.8 °F /  4.3 °C 29.84in /  1010.4hPa Calm     99% 0in /  0mm WeatherDisplay:10.37 W/m2
06:04 40.1 °F /  4.5 °C 39.8 °F /  4.3 °C 29.84in /  1010.4hPa Calm     99% 0in /  0mm WeatherDisplay:10.37 W/m2
06:09 40.1 °F /  4.5 °C 39.8 °F /  4.3 °C 29.83in /  1010hPa Calm     99% 0in /  0mm WeatherDisplay:10.37 W/m2
06:14 40.3 °F /  4.6 °C 40 °F /  4.4 °C 29.83in /  1010hPa Calm     99% 0in /  0mm WeatherDisplay:10.37 W/m2
06:19 40.3 °F /  4.6 °C 40 °F /  4.4 °C 29.84in /  1010.4hPa Calm     99% 0in /  0mm WeatherDisplay:10.37 W/m2
06:24 40.3 °F /  4.6 °C 40 °F /  4.4 °C 29.84in /  1010.4hPa Calm     99% 0in /  0mm WeatherDisplay:10.37 W/m2
06:29 40.5 °F /  4.7 °C 40.2 °F /  4.6 °C 29.83in /  1010hPa Calm     99% 0in /  0mm WeatherDisplay:10.37 W/m2
06:34 40.5 °F /  4.7 °C 40.2 °F /  4.6 °C 29.83in /  1010hPa Calm     99% 0in /  0mm WeatherDisplay:10.37 W/m2
06:39 40.5 °F /  4.7 °C 40.2 °F /  4.6 °C 29.83in /  1010hPa Calm     99% 0in /  0mm WeatherDisplay:10.37 W/m2
06:44 40.6 °F /  4.8 °C 40.3 °F /  4.6 °C 29.84in /  1010.4hPa Calm     99% 0in /  0mm WeatherDisplay:10.37 W/m2
06:49 40.8 °F /  4.9 °C 40.5 °F /  4.7 °C 29.84in /  1010.4hPa Calm     99% 0in /  0mm WeatherDisplay:10.37 W/m2
06:54 40.8 °F /  4.9 °C 40.5 °F /  4.7 °C 29.84in /  1010.4hPa Calm     99% 0in /  0mm WeatherDisplay:10.37 W/m2
06:59 41 °F /  5 °C 40.7 °F /  4.8 °C 29.84in /  1010.4hPa Calm     99% 0in /  0mm WeatherDisplay:10.37 W/m2
07:04 41.2 °F /  5.1 °C 40.9 °F /  4.9 °C 29.84in /  1010.4hPa Calm     99% 0in /  0mm WeatherDisplay:10.37 W/m2
07:09 41.5 °F /  5.3 °C 40.2 °F /  4.6 °C 29.84in /  1010.4hPa West 4.6mph /  7.4km/h 3.6mph /  5.8km/h 95% 0in /  0mm WeatherDisplay:10.37 W/m2
07:14 42.3 °F /  5.7 °C 40.7 °F /  4.8 °C 29.84in /  1010.4hPa Calm     94% 0in /  0mm WeatherDisplay:10.37 W/m2
07:19 42.3 °F /  5.7 °C 41.8 °F /  5.4 °C 29.84in /  1010.4hPa Calm     98% 0in /  0mm WeatherDisplay:10.37 W/m2
07:24 42.3 °F /  5.7 °C 41.5 °F /  5.3 °C 29.84in /  1010.4hPa WNW 3.5mph /  5.6km/h 3mph /  4.8km/h 97% 0in /  0mm WeatherDisplay:10.37 W/m2
07:29 42.6 °F /  5.9 °C 41.8 °F /  5.4 °C 29.84in /  1010.4hPa Calm     97% 0in /  0mm WeatherDisplay:10.37 W/m2
07:34 42.6 °F /  5.9 °C 41.5 °F /  5.3 °C 29.84in /  1010.4hPa Calm     96% 0in /  0mm WeatherDisplay:10.37 W/m2
07:39 43 °F /  6.1 °C 41.9 °F /  5.5 °C 29.84in /  1010.4hPa Calm     96% 0in /  0mm WeatherDisplay:10.37 W/m2
07:44 43.2 °F /  6.2 °C 41.9 °F /  5.5 °C 29.85in /  1010.7hPa Calm     95% 0in /  0mm WeatherDisplay:10.37 W/m2
07:49 43.7 °F /  6.5 °C 42.1 °F /  5.6 °C 29.85in /  1010.7hPa Calm     94% 0in /  0mm WeatherDisplay:10.37 W/m2
07:54 44.2 °F /  6.8 °C 42.9 °F /  6.1 °C 29.84in /  1010.4hPa Calm     95% 0in /  0mm WeatherDisplay:10.37 W/m2
07:59 44.4 °F /  6.9 °C 43.3 °F /  6.3 °C 29.84in /  1010.4hPa Calm     96% 0in /  0mm WeatherDisplay:10.37 W/m2
08:04 44.6 °F /  7 °C 43.5 °F /  6.4 °C 29.84in /  1010.4hPa Calm     96% 0in /  0mm WeatherDisplay:10.37 W/m2
08:09 44.8 °F /  7.1 °C 43.7 °F /  6.5 °C 29.85in /  1010.7hPa Calm     96% 0in /  0mm WeatherDisplay:10.37 W/m2
08:14 45.1 °F /  7.3 °C 43.2 °F /  6.2 °C 29.85in /  1010.7hPa North 2.8mph /  4.5km/h 3.1mph /  5km/h 93% 0in /  0mm WeatherDisplay:10.37 W/m2
08:19 45.1 °F /  7.3 °C 43.8 °F /  6.6 °C 29.84in /  1010.4hPa NNE 1.5mph /  2.4km/h 0.8mph /  1.3km/h 95% 0in /  0mm WeatherDisplay:10.37 W/m2
08:24 45.3 °F /  7.4 °C 42.8 °F /  6 °C 29.84in /  1010.4hPa Calm     91% 0in /  0mm WeatherDisplay:10.37 W/m2
08:29 45.5 °F /  7.5 °C 43.9 °F /  6.6 °C 29.85in /  1010.7hPa Calm     94% 0in /  0mm WeatherDisplay:10.37 W/m2
08:34 45.9 °F /  7.7 °C 44.5 °F /  6.9 °C 29.85in /  1010.7hPa Calm     95% 0in /  0mm WeatherDisplay:10.37 W/m2
08:39 46 °F /  7.8 °C 43.8 °F /  6.6 °C 29.85in /  1010.7hPa Calm     92% 0in /  0mm WeatherDisplay:10.37 W/m2
08:44 46.6 °F /  8.1 °C 43.8 °F /  6.6 °C 29.85in /  1010.7hPa North 2.3mph /  3.7km/h   90% 0in /  0mm WeatherDisplay:10.37 W/m2
08:49 46.8 °F /  8.2 °C 42.8 °F /  6 °C 29.85in /  1010.7hPa Calm     86% 0in /  0mm WeatherDisplay:10.37 W/m2
08:54 47.1 °F /  8.4 °C 44.3 °F /  6.8 °C 29.85in /  1010.7hPa Calm     90% 0in /  0mm WeatherDisplay:10.37 W/m2
08:59 47.3 °F /  8.5 °C 44.2 °F /  6.8 °C 29.85in /  1010.7hPa Calm     89% 0in /  0mm WeatherDisplay:10.37 W/m2
09:04 47.3 °F /  8.5 °C 43.9 °F /  6.6 °C 29.85in /  1010.7hPa North 1.5mph /  2.4km/h 0.2mph /  0.3km/h 88% 0in /  0mm WeatherDisplay:10.37 W/m2
09:09 47.7 °F /  8.7 °C 44 °F /  6.7 °C 29.85in /  1010.7hPa NNE 3.5mph /  5.6km/h 0.3mph /  0.5km/h 87% 0in /  0mm WeatherDisplay:10.37 W/m2
09:14 48 °F /  8.9 °C 44.3 °F /  6.8 °C 29.85in /  1010.7hPa ESE 3.5mph /  5.6km/h 1.6mph /  2.6km/h 87% 0in /  0mm WeatherDisplay:10.37 W/m2
09:19 48.4 °F /  9.1 °C 45 °F /  7.2 °C 29.85in /  1010.7hPa South 2.3mph /  3.7km/h 0.2mph /  0.3km/h 88% 0in /  0mm WeatherDisplay:10.37 W/m2
09:24 48.7 °F /  9.3 °C 44.7 °F /  7.1 °C 29.85in /  1010.7hPa Calm     86% 0in /  0mm WeatherDisplay:10.37 W/m2
09:29 49.5 °F /  9.7 °C 45.8 °F /  7.7 °C 29.85in /  1010.7hPa Calm     87% 0in /  0mm WeatherDisplay:10.37 W/m2
09:34 49.8 °F /  9.9 °C 46.1 °F /  7.8 °C 29.85in /  1010.7hPa Calm     87% 0in /  0mm WeatherDisplay:10.37 W/m2
09:39 51.1 °F /  10.6 °C 45.5 °F /  7.5 °C 29.85in /  1010.7hPa Calm     81% 0in /  0mm WeatherDisplay:10.37 W/m2
09:44 51.8 °F /  11 °C 45.5 °F /  7.5 °C 29.85in /  1010.7hPa Calm     79% 0in /  0mm WeatherDisplay:10.37 W/m2
09:49 52.3 °F /  11.3 °C 46.3 °F /  7.9 °C 29.85in /  1010.7hPa NW 1.5mph /  2.4km/h 0.2mph /  0.3km/h 80% 0in /  0mm WeatherDisplay:10.37 W/m2
09:54 53.4 °F /  11.9 °C 45.7 °F /  7.6 °C 29.85in /  1010.7hPa Calm     75% 0in /  0mm WeatherDisplay:10.37 W/m2
09:59 53.6 °F /  12 °C 45.9 °F /  7.7 °C 29.85in /  1010.7hPa Calm     75% 0in /  0mm WeatherDisplay:10.37 W/m2
10:04 53.8 °F /  12.1 °C 46.1 °F /  7.8 °C 29.85in /  1010.7hPa Calm     75% 0in /  0mm WeatherDisplay:10.37 W/m2
10:09 54.1 °F /  12.3 °C 46.7 °F /  8.2 °C 29.85in /  1010.7hPa WNW 2.8mph /  4.5km/h 1.9mph /  3.1km/h 76% 0in /  0mm WeatherDisplay:10.37 W/m2
10:14 54.3 °F /  12.4 °C 47.6 °F /  8.7 °C 29.85in /  1010.7hPa Calm     78% 0in /  0mm WeatherDisplay:10.37 W/m2
10:19 54.1 °F /  12.3 °C 46.3 °F /  7.9 °C 29.85in /  1010.7hPa NNE 2.3mph /  3.7km/h 0.6mph /  1km/h 75% 0in /  0mm WeatherDisplay:10.37 W/m2
10:24 54.9 °F /  12.7 °C 47.1 °F /  8.4 °C 29.85in /  1010.7hPa West 3.5mph /  5.6km/h 0.7mph /  1.1km/h 75% 0in /  0mm WeatherDisplay:10.37 W/m2
10:29 55 °F /  12.8 °C 46.1 °F /  7.8 °C 29.85in /  1010.7hPa West 2.8mph /  4.5km/h 2.8mph /  4.5km/h 72% 0in /  0mm WeatherDisplay:10.37 W/m2
10:34 55.6 °F /  13.1 °C 47.8 °F /  8.8 °C 29.85in /  1010.7hPa SW 2.3mph /  3.7km/h   75% 0in /  0mm WeatherDisplay:10.37 W/m2
10:39 56.1 °F /  13.4 °C 47.2 °F /  8.4 °C 29.85in /  1010.7hPa Calm     72% 0in /  0mm WeatherDisplay:10.37 W/m2
10:44 55.9 °F /  13.3 °C 47.4 °F /  8.6 °C 29.85in /  1010.7hPa ESE 3.5mph /  5.6km/h 4.2mph /  6.8km/h 73% 0in /  0mm WeatherDisplay:10.37 W/m2
10:49 55 °F /  12.8 °C 46.1 °F /  7.8 °C 29.85in /  1010.7hPa South 5.8mph /  9.3km/h 3.9mph /  6.3km/h 72% 0in /  0mm WeatherDisplay:10.37 W/m2
10:54 56.3 °F /  13.5 °C 47.4 °F /  8.6 °C 29.85in /  1010.7hPa East 4.6mph /  7.4km/h 1.6mph /  2.6km/h 72% 0in /  0mm WeatherDisplay:10.37 W/m2
10:59 57.7 °F /  14.3 °C 46.8 °F /  8.2 °C 29.85in /  1010.7hPa SE 2.3mph /  3.7km/h 2.1mph /  3.4km/h 67% 0in /  0mm WeatherDisplay:10.37 W/m2
11:04 57.9 °F /  14.4 °C 47.8 °F /  8.8 °C 29.85in /  1010.7hPa Calm     69% 0in /  0mm WeatherDisplay:10.37 W/m2
11:09 59.2 °F /  15.1 °C 47 °F /  8.3 °C 29.85in /  1010.7hPa West 5.8mph /  9.3km/h 2.4mph /  3.9km/h 64% 0in /  0mm WeatherDisplay:10.37 W/m2
11:14 61.2 °F /  16.2 °C 47.6 °F /  8.7 °C 29.85in /  1010.7hPa Calm     61% 0in /  0mm WeatherDisplay:10.37 W/m2
11:19 60.4 °F /  15.8 °C 46.9 °F /  8.3 °C 29.86in /  1011.1hPa Calm     61% 0in /  0mm WeatherDisplay:10.37 W/m2
11:24 58.8 °F /  14.9 °C 46.6 °F /  8.1 °C 29.86in /  1011.1hPa North 3.5mph /  5.6km/h 1.5mph /  2.4km/h 64% 0in /  0mm WeatherDisplay:10.37 W/m2
11:29 59.4 °F /  15.2 °C 46.4 °F /  8 °C 29.86in /  1011.1hPa East 1.5mph /  2.4km/h 0.6mph /  1km/h 62% 0in /  0mm WeatherDisplay:10.37 W/m2
11:34 59.2 °F /  15.1 °C 45.8 °F /  7.7 °C 29.86in /  1011.1hPa NE 4.8mph /  7.7km/h 1mph /  1.6km/h 61% 0in /  0mm WeatherDisplay:10.37 W/m2
11:39 57.9 °F /  14.4 °C 45 °F /  7.2 °C 29.86in /  1011.1hPa ENE 3.5mph /  5.6km/h 0.8mph /  1.3km/h 62% 0in /  0mm WeatherDisplay:10.37 W/m2
11:44 58.8 °F /  14.9 °C 46.6 °F /  8.1 °C 29.86in /  1011.1hPa West 2.8mph /  4.5km/h 2.1mph /  3.4km/h 64% 0in /  0mm WeatherDisplay:10.37 W/m2
11:49 59.2 °F /  15.1 °C 46.2 °F /  7.9 °C 29.86in /  1011.1hPa Calm     62% 0in /  0mm WeatherDisplay:10.37 W/m2
11:54 59.5 °F /  15.3 °C 46.5 °F /  8.1 °C 29.87in /  1011.4hPa ENE 2.3mph /  3.7km/h 1.7mph /  2.7km/h 62% 0in /  0mm WeatherDisplay:10.37 W/m2
11:59 58.3 °F /  14.6 °C 45.8 °F /  7.7 °C 29.87in /  1011.4hPa North 2.3mph /  3.7km/h 0.5mph /  0.8km/h 63% 0in /  0mm WeatherDisplay:10.37 W/m2
12:04 59 °F /  15 °C 46.4 °F /  8 °C 29.87in /  1011.4hPa ESE 2.3mph /  3.7km/h 1.4mph /  2.3km/h 63% 0in /  0mm WeatherDisplay:10.37 W/m2
12:09 59.2 °F /  15.1 °C 45.8 °F /  7.7 °C 29.87in /  1011.4hPa North 1.5mph /  2.4km/h 0.2mph /  0.3km/h 61% 0in /  0mm WeatherDisplay:10.37 W/m2
12:14 58.3 °F /  14.6 °C 46.6 °F /  8.1 °C 29.87in /  1011.4hPa Calm     65% 0in /  0mm WeatherDisplay:10.37 W/m2
12:19 58.3 °F /  14.6 °C 46.6 °F /  8.1 °C 29.88in /  1011.7hPa Calm     65% 0in /  0mm WeatherDisplay:10.37 W/m2
12:24 59 °F /  15 °C 46.8 °F /  8.2 °C 29.88in /  1011.7hPa Calm     64% 0in /  0mm WeatherDisplay:10.37 W/m2
12:29 60.8 °F /  16 °C 47.3 °F /  8.5 °C 29.88in /  1011.7hPa North 2.2mph /  3.5km/h 1.2mph /  1.9km/h 61% 0in /  0mm WeatherDisplay:10.37 W/m2
12:34 61.2 °F /  16.2 °C 46.8 °F /  8.2 °C 29.87in /  1011.4hPa NNE 4.8mph /  7.7km/h 0.5mph /  0.8km/h 59% 0in /  0mm WeatherDisplay:10.37 W/m2
12:39 59.9 °F /  15.5 °C 46.8 °F /  8.2 °C 29.87in /  1011.4hPa West 2.3mph /  3.7km/h 2.1mph /  3.4km/h 62% 0in /  0mm WeatherDisplay:10.37 W/m2
12:44 58.3 °F /  14.6 °C 45.3 °F /  7.4 °C 29.88in /  1011.7hPa NNW 1.2mph /  1.9km/h   62% 0in /  0mm WeatherDisplay:10.37 W/m2
12:49 59.5 °F /  15.3 °C 46.9 °F /  8.3 °C 29.88in /  1011.7hPa NNE 2.3mph /  3.7km/h 1.4mph /  2.3km/h 63% 0in /  0mm WeatherDisplay:10.37 W/m2
12:54 60.1 °F /  15.6 °C 46.2 °F /  7.9 °C 29.87in /  1011.4hPa South 3.5mph /  5.6km/h 1.1mph /  1.8km/h 60% 0in /  0mm WeatherDisplay:10.37 W/m2
12:59 60.8 °F /  16 °C 48.1 °F /  8.9 °C 29.87in /  1011.4hPa SW 3.5mph /  5.6km/h 1.8mph /  2.9km/h 63% 0in /  0mm WeatherDisplay:10.37 W/m2
13:04 60.4 °F /  15.8 °C 46.4 °F /  8 °C 29.87in /  1011.4hPa North 3.5mph /  5.6km/h 1.2mph /  1.9km/h 60% 0in /  0mm WeatherDisplay:10.37 W/m2
13:09 60.4 °F /  15.8 °C 46.4 °F /  8 °C 29.87in /  1011.4hPa ESE 2.3mph /  3.7km/h 0.7mph /  1.1km/h 60% 0in /  0mm WeatherDisplay:10.37 W/m2
13:14 61.3 °F /  16.3 °C 45.5 °F /  7.5 °C 29.87in /  1011.4hPa WSW 3.5mph /  5.6km/h 1.5mph /  2.4km/h 56% 0in /  0mm WeatherDisplay:10.37 W/m2
13:19 61.5 °F /  16.4 °C 47 °F /  8.3 °C 29.87in /  1011.4hPa SW 2.3mph /  3.7km/h 0.9mph /  1.4km/h 59% 0in /  0mm WeatherDisplay:10.37 W/m2
13:24 61.5 °F /  16.4 °C 47.5 °F /  8.6 °C 29.87in /  1011.4hPa SW 1.2mph /  1.9km/h   60% 0in /  0mm WeatherDisplay:10.37 W/m2
13:29 62.2 °F /  16.8 °C 46.3 °F /  7.9 °C 29.88in /  1011.7hPa West 4.8mph /  7.7km/h 0.5mph /  0.8km/h 56% 0in /  0mm WeatherDisplay:10.37 W/m2
13:34 61 °F /  16.1 °C 44.7 °F /  7.1 °C 29.88in /  1011.7hPa NW 5.8mph /  9.3km/h 4.5mph /  7.2km/h 55% 0in /  0mm WeatherDisplay:10.37 W/m2
13:39 62.4 °F /  16.9 °C 45.5 °F /  7.5 °C 29.88in /  1011.7hPa North 2.8mph /  4.5km/h 1.6mph /  2.6km/h 54% 0in /  0mm WeatherDisplay:10.37 W/m2
13:44 62.2 °F /  16.8 °C 45.3 °F /  7.4 °C 29.88in /  1011.7hPa SSW 5.8mph /  9.3km/h   54% 0in /  0mm WeatherDisplay:10.37 W/m2
13:49 61.7 °F /  16.5 °C 45.8 °F /  7.7 °C 29.88in /  1011.7hPa SSE 2.3mph /  3.7km/h   56% 0in /  0mm WeatherDisplay:10.37 W/m2
13:54 60.8 °F /  16 °C 45.9 °F /  7.7 °C 29.88in /  1011.7hPa West 4.2mph /  6.8km/h 1.4mph /  2.3km/h 58% 0in /  0mm WeatherDisplay:10.37 W/m2
13:59 60.4 °F /  15.8 °C 44.6 °F /  7 °C 29.88in /  1011.7hPa Calm     56% 0in /  0mm WeatherDisplay:10.37 W/m2
14:04 60.1 °F /  15.6 °C 47 °F /  8.3 °C 29.88in /  1011.7hPa Calm     62% 0in /  0mm WeatherDisplay:10.37 W/m2
14:09 60.8 °F /  16 °C 46.4 °F /  8 °C 29.88in /  1011.7hPa Calm     59% 0in /  0mm WeatherDisplay:10.37 W/m2
14:14 60.8 °F /  16 °C 46.8 °F /  8.2 °C 29.88in /  1011.7hPa Calm     60% 0in /  0mm WeatherDisplay:10.37 W/m2
14:19 60.6 °F /  15.9 °C 45.7 °F /  7.6 °C 29.88in /  1011.7hPa Calm     58% 0in /  0mm WeatherDisplay:10.37 W/m2
14:24 59.4 °F /  15.2 °C 48.4 °F /  9.1 °C 29.88in /  1011.7hPa Calm     67% 0in /  0mm WeatherDisplay:10.37 W/m2
14:29 60.8 °F /  16 °C 47.3 °F /  8.5 °C 29.88in /  1011.7hPa Calm     61% 0in /  0mm WeatherDisplay:10.37 W/m2
14:34 60.6 °F /  15.9 °C 46.6 °F /  8.1 °C 29.88in /  1011.7hPa Calm     60% 0in /  0mm WeatherDisplay:10.37 W/m2
14:39 60.1 °F /  15.6 °C 47 °F /  8.3 °C 29.88in /  1011.7hPa SSE 2.3mph /  3.7km/h 0.2mph /  0.3km/h 62% 0in /  0mm WeatherDisplay:10.37 W/m2
14:44 61 °F /  16.1 °C 46.6 °F /  8.1 °C 29.87in /  1011.4hPa NNW 4.6mph /  7.4km/h   59% 0in /  0mm WeatherDisplay:10.37 W/m2
14:49 60.8 °F /  16 °C 45.9 °F /  7.7 °C 29.87in /  1011.4hPa Calm     58% 0in /  0mm WeatherDisplay:10.37 W/m2
14:54 61.9 °F /  16.6 °C 46.5 °F /  8.1 °C 29.87in /  1011.4hPa Calm     57% 0in /  0mm WeatherDisplay:10.37 W/m2
14:59 63.9 °F /  17.7 °C 46.4 °F /  8 °C 29.87in /  1011.4hPa Calm     53% 0in /  0mm WeatherDisplay:10.37 W/m2
15:04 61.5 °F /  16.4 °C 48.4 °F /  9.1 °C 29.87in /  1011.4hPa Calm     62% 0in /  0mm WeatherDisplay:10.37 W/m2
15:09 63.1 °F /  17.3 °C 45.7 °F /  7.6 °C 29.87in /  1011.4hPa South 2.3mph /  3.7km/h   53% 0in /  0mm WeatherDisplay:10.37 W/m2
15:14 62.8 °F /  17.1 °C 44.4 °F /  6.9 °C 29.87in /  1011.4hPa North 2.3mph /  3.7km/h 1.7mph /  2.7km/h 51% 0in /  0mm WeatherDisplay:10.37 W/m2
15:19 62.4 °F /  16.9 °C 45 °F /  7.2 °C 29.87in /  1011.4hPa Calm     53% 0in /  0mm WeatherDisplay:10.37 W/m2
15:24 64 °F /  17.8 °C 44.4 °F /  6.9 °C 29.87in /  1011.4hPa South 4.8mph /  7.7km/h 3.1mph /  5km/h 49% 0in /  0mm WeatherDisplay:10.37 W/m2
15:29 64 °F /  17.8 °C 45.5 °F /  7.5 °C 29.86in /  1011.1hPa WNW 2.3mph /  3.7km/h   51% 0in /  0mm WeatherDisplay:10.37 W/m2
15:34 63.5 °F /  17.5 °C 42.3 °F /  5.7 °C 29.86in /  1011.1hPa NNE 5.8mph /  9.3km/h 2.1mph /  3.4km/h 46% 0in /  0mm WeatherDisplay:10.37 W/m2
15:39 63.1 °F /  17.3 °C 44.7 °F /  7.1 °C 29.86in /  1011.1hPa NNE 6.2mph /  10km/h 4.8mph /  7.7km/h 51% 0in /  0mm WeatherDisplay:10.37 W/m2
15:44 63 °F /  17.2 °C 42.4 °F /  5.8 °C 29.86in /  1011.1hPa East 4.6mph /  7.4km/h 2.6mph /  4.2km/h 47% 0in /  0mm WeatherDisplay:10.37 W/m2
15:49 63.3 °F /  17.4 °C 43.8 °F /  6.6 °C 29.86in /  1011.1hPa SW 2.3mph /  3.7km/h 1.8mph /  2.9km/h 49% 0in /  0mm WeatherDisplay:10.37 W/m2
15:54 63.5 °F /  17.5 °C 45.6 °F /  7.6 °C 29.86in /  1011.1hPa Calm     52% 0in /  0mm WeatherDisplay:10.37 W/m2
15:59 63.5 °F /  17.5 °C 46.1 °F /  7.8 °C 29.86in /  1011.1hPa Calm     53% 0in /  0mm WeatherDisplay:10.37 W/m2
16:04 63.5 °F /  17.5 °C 42.9 °F /  6.1 °C 29.86in /  1011.1hPa South 4.8mph /  7.7km/h 4.5mph /  7.2km/h 47% 0in /  0mm WeatherDisplay:10.37 W/m2
16:09 62.8 °F /  17.1 °C 46.4 °F /  8 °C 29.85in /  1010.7hPa SW 2.3mph /  3.7km/h   55% 0in /  0mm WeatherDisplay:10.37 W/m2
16:14 63.5 °F /  17.5 °C 45 °F /  7.2 °C 29.85in /  1010.7hPa SSW 2.3mph /  3.7km/h 0.5mph /  0.8km/h 51% 0in /  0mm WeatherDisplay:10.37 W/m2
16:19 63.3 °F /  17.4 °C 44.9 °F /  7.2 °C 29.85in /  1010.7hPa SSE 3.5mph /  5.6km/h 2.4mph /  3.9km/h 51% 0in /  0mm WeatherDisplay:10.37 W/m2
16:24 63.3 °F /  17.4 °C 46.4 °F /  8 °C 29.85in /  1010.7hPa Calm     54% 0in /  0mm WeatherDisplay:10.37 W/m2
16:29 63.7 °F /  17.6 °C 46.2 °F /  7.9 °C 29.85in /  1010.7hPa SSW 3.5mph /  5.6km/h 3.5mph /  5.6km/h 53% 0in /  0mm WeatherDisplay:10.37 W/m2
16:34 63 °F /  17.2 °C 45.6 °F /  7.6 °C 29.85in /  1010.7hPa Calm     53% 0in /  0mm WeatherDisplay:10.37 W/m2
16:39 63.7 °F /  17.6 °C 47.2 °F /  8.4 °C 29.85in /  1010.7hPa Calm     55% 0in /  0mm WeatherDisplay:10.37 W/m2
16:44 63.9 °F /  17.7 °C 46.4 °F /  8 °C 29.85in /  1010.7hPa WNW 2.3mph /  3.7km/h   53% 0in /  0mm WeatherDisplay:10.37 W/m2
16:49 64 °F /  17.8 °C 46.5 °F /  8.1 °C 29.85in /  1010.7hPa NNW 3.5mph /  5.6km/h 3.9mph /  6.3km/h 53% 0in /  0mm WeatherDisplay:10.37 W/m2
16:54 63.7 °F /  17.6 °C 47.2 °F /  8.4 °C 29.85in /  1010.7hPa Calm     55% 0in /  0mm WeatherDisplay:10.37 W/m2
16:59 64.4 °F /  18 °C 46.9 °F /  8.3 °C 29.85in /  1010.7hPa West 4.6mph /  7.4km/h 3.2mph /  5.1km/h 53% 0in /  0mm WeatherDisplay:10.37 W/m2
17:04 63.9 °F /  17.7 °C 46.9 °F /  8.3 °C 29.85in /  1010.7hPa North 4.6mph /  7.4km/h 3.1mph /  5km/h 54% 0in /  0mm WeatherDisplay:10.37 W/m2
17:09 62.8 °F /  17.1 °C 47.3 °F /  8.5 °C 29.86in /  1011.1hPa North 4.6mph /  7.4km/h 2.6mph /  4.2km/h 57% 0in /  0mm WeatherDisplay:10.37 W/m2
17:14 62.8 °F /  17.1 °C 47.3 °F /  8.5 °C 29.86in /  1011.1hPa WNW 4.6mph /  7.4km/h 4mph /  6.4km/h 57% 0in /  0mm WeatherDisplay:10.37 W/m2
17:19 63 °F /  17.2 °C 48 °F /  8.9 °C 29.85in /  1010.7hPa Calm     58% 0in /  0mm WeatherDisplay:10.37 W/m2
17:24 62.8 °F /  17.1 °C 47.8 °F /  8.8 °C 29.85in /  1010.7hPa West 2.3mph /  3.7km/h 1.3mph /  2.1km/h 58% 0in /  0mm WeatherDisplay:10.37 W/m2
17:29 62.1 °F /  16.7 °C 47.1 °F /  8.4 °C 29.85in /  1010.7hPa NNW 4.6mph /  7.4km/h 1.7mph /  2.7km/h 58% 0in /  0mm WeatherDisplay:10.37 W/m2
17:34 61.2 °F /  16.2 °C 48.1 °F /  8.9 °C 29.85in /  1010.7hPa NW 4.8mph /  7.7km/h 4.8mph /  7.7km/h 62% 0in /  0mm WeatherDisplay:10.37 W/m2
17:39 60.3 °F /  15.7 °C 47.6 °F /  8.7 °C 29.85in /  1010.7hPa NNE 9.2mph /  14.8km/h 4.8mph /  7.7km/h 63% 0in /  0mm WeatherDisplay:10.37 W/m2
17:44 60.3 °F /  15.7 °C 48.1 °F /  8.9 °C 29.85in /  1010.7hPa NNE 6.2mph /  10km/h 4.5mph /  7.2km/h 64% 0in /  0mm WeatherDisplay:10.37 W/m2
17:49 59.5 °F /  15.3 °C 47.7 °F /  8.7 °C 29.85in /  1010.7hPa NNE 5.8mph /  9.3km/h 5.2mph /  8.4km/h 65% 0in /  0mm WeatherDisplay:10.37 W/m2
17:54 59 °F /  15 °C 47.7 °F /  8.7 °C 29.86in /  1011.1hPa NNE 4.6mph /  7.4km/h 4.2mph /  6.8km/h 66% 0in /  0mm WeatherDisplay:10.37 W/m2
17:59 58.8 °F /  14.9 °C 47.9 °F /  8.8 °C 29.86in /  1011.1hPa ESE 4.6mph /  7.4km/h 3.7mph /  6km/h 67% 0in /  0mm WeatherDisplay:10.37 W/m2
18:04 58.6 °F /  14.8 °C 47.3 °F /  8.5 °C 29.86in /  1011.1hPa NE 4.6mph /  7.4km/h 4.3mph /  6.9km/h 66% 0in /  0mm WeatherDisplay:10.37 W/m2
18:09 58.6 °F /  14.8 °C 47.3 °F /  8.5 °C 29.86in /  1011.1hPa South 5.5mph /  8.9km/h 1.2mph /  1.9km/h 66% 0in /  0mm WeatherDisplay:10.37 W/m2
18:14 58.8 °F /  14.9 °C 46.2 °F /  7.9 °C 29.86in /  1011.1hPa ESE 3.5mph /  5.6km/h 2.4mph /  3.9km/h 63% 0in /  0mm WeatherDisplay:10.37 W/m2
18:19 59 °F /  15 °C 46.8 °F /  8.2 °C 29.85in /  1010.7hPa SSW 4.2mph /  6.8km/h 2mph /  3.2km/h 64% 0in /  0mm WeatherDisplay:10.37 W/m2
18:24 59.4 °F /  15.2 °C 47.2 °F /  8.4 °C 29.85in /  1010.7hPa Calm     64% 0in /  0mm WeatherDisplay:10.37 W/m2
18:29 59.4 °F /  15.2 °C 48.4 °F /  9.1 °C 29.85in /  1010.7hPa Calm     67% 0in /  0mm WeatherDisplay:10.37 W/m2
18:34 59.5 °F /  15.3 °C 48.5 °F /  9.2 °C 29.84in /  1010.4hPa Calm     67% 0in /  0mm WeatherDisplay:10.37 W/m2
18:39 59.4 °F /  15.2 °C 48.4 °F /  9.1 °C 29.84in /  1010.4hPa North 2.8mph /  4.5km/h   67% 0in /  0mm WeatherDisplay:10.37 W/m2
18:44 59.2 °F /  15.1 °C 49 °F /  9.4 °C 29.84in /  1010.4hPa Calm     69% 0in /  0mm WeatherDisplay:10.37 W/m2
18:49 59.2 °F /  15.1 °C 48.2 °F /  9 °C 29.84in /  1010.4hPa Calm     67% 0in /  0mm WeatherDisplay:10.37 W/m2
18:54 58.8 °F /  14.9 °C 48.3 °F /  9.1 °C 29.85in /  1010.7hPa East 2.3mph /  3.7km/h 1.2mph /  1.9km/h 68% 0in /  0mm WeatherDisplay:10.37 W/m2
18:59 58.8 °F /  14.9 °C 48.6 °F /  9.2 °C 29.85in /  1010.7hPa Calm     69% 0in /  0mm WeatherDisplay:10.37 W/m2
19:04 58.6 °F /  14.8 °C 48.5 °F /  9.2 °C 29.85in /  1010.7hPa NNE 3.5mph /  5.6km/h 0.8mph /  1.3km/h 69% 0in /  0mm WeatherDisplay:10.37 W/m2
19:09 58.5 °F /  14.7 °C 47.2 °F /  8.4 °C 29.84in /  1010.4hPa West 2.8mph /  4.5km/h 2.4mph /  3.9km/h 66% 0in /  0mm WeatherDisplay:10.37 W/m2
19:14 58.3 °F /  14.6 °C 46.6 °F /  8.1 °C 29.84in /  1010.4hPa Calm     65% 0in /  0mm WeatherDisplay:10.37 W/m2
19:19 58.1 °F /  14.5 °C 47.2 °F /  8.4 °C 29.85in /  1010.7hPa NE 1.2mph /  1.9km/h   67% 0in /  0mm WeatherDisplay:10.37 W/m2
19:24 57.9 °F /  14.4 °C 47 °F /  8.3 °C 29.85in /  1010.7hPa North 3.5mph /  5.6km/h 3.3mph /  5.3km/h 67% 0in /  0mm WeatherDisplay:10.37 W/m2
19:29 57.9 °F /  14.4 °C 46.2 °F /  7.9 °C 29.85in /  1010.7hPa North 2.8mph /  4.5km/h 2.1mph /  3.4km/h 65% 0in /  0mm WeatherDisplay:10.37 W/m2
19:34 57.9 °F /  14.4 °C 46.6 °F /  8.1 °C 29.85in /  1010.7hPa ESE 5.8mph /  9.3km/h 2.3mph /  3.7km/h 66% 0in /  0mm WeatherDisplay:10.37 W/m2
19:39 57.9 °F /  14.4 °C 46.2 °F /  7.9 °C 29.85in /  1010.7hPa NNE 4.6mph /  7.4km/h 1.2mph /  1.9km/h 65% 0in /  0mm WeatherDisplay:10.37 W/m2
19:44 57.6 °F /  14.2 °C 46.3 °F /  7.9 °C 29.86in /  1011.1hPa NE 4.6mph /  7.4km/h 1.2mph /  1.9km/h 66% 0in /  0mm WeatherDisplay:10.37 W/m2
19:49 57.4 °F /  14.1 °C 46.5 °F /  8.1 °C 29.86in /  1011.1hPa NE 2.3mph /  3.7km/h   67% 0in /  0mm WeatherDisplay:10.37 W/m2
19:54 57 °F /  13.9 °C 46.9 °F /  8.3 °C 29.86in /  1011.1hPa Calm     69% 0in /  0mm WeatherDisplay:10.37 W/m2
19:59 56.5 °F /  13.6 °C 46.8 °F /  8.2 °C 29.86in /  1011.1hPa Calm     70% 0in /  0mm WeatherDisplay:10.37 W/m2
20:04 56.3 °F /  13.5 °C 46.3 °F /  7.9 °C 29.86in /  1011.1hPa Calm     69% 0in /  0mm WeatherDisplay:10.37 W/m2
20:09 55.9 °F /  13.3 °C 46.3 °F /  7.9 °C 29.86in /  1011.1hPa Calm     70% 0in /  0mm WeatherDisplay:10.37 W/m2
20:14 55.6 °F /  13.1 °C 46.3 °F /  7.9 °C 29.86in /  1011.1hPa Calm     71% 0in /  0mm WeatherDisplay:10.37 W/m2
20:19 55.4 °F /  13 °C 46.2 °F /  7.9 °C 29.87in /  1011.4hPa Calm     71% 0in /  0mm WeatherDisplay:10.37 W/m2
20:24 55.4 °F /  13 °C 46.5 °F /  8.1 °C 29.87in /  1011.4hPa Calm     72% 0in /  0mm WeatherDisplay:10.37 W/m2
20:29 55.2 °F /  12.9 °C 46.3 °F /  7.9 °C 29.87in /  1011.4hPa SSW 4.2mph /  6.8km/h 2.7mph /  4.3km/h 72% 0in /  0mm WeatherDisplay:10.37 W/m2
20:34 55.2 °F /  12.9 °C 45.2 °F /  7.3 °C 29.87in /  1011.4hPa WNW 4.2mph /  6.8km/h 3.5mph /  5.6km/h 69% 0in /  0mm WeatherDisplay:10.37 W/m2
20:39 55 °F /  12.8 °C 44.2 °F /  6.8 °C 29.87in /  1011.4hPa SSE 8.1mph /  13km/h 4.9mph /  7.9km/h 67% 0in /  0mm WeatherDisplay:10.37 W/m2
20:44 54.7 °F /  12.6 °C 44.3 °F /  6.8 °C 29.87in /  1011.4hPa NNE 6.9mph /  11.1km/h 5.8mph /  9.3km/h 68% 0in /  0mm WeatherDisplay:10.37 W/m2
20:49 54.5 °F /  12.5 °C 43.8 °F /  6.6 °C 29.87in /  1011.4hPa WSW 3.5mph /  5.6km/h 3mph /  4.8km/h 67% 0in /  0mm WeatherDisplay:10.37 W/m2
20:54 54 °F /  12.2 °C 44.4 °F /  6.9 °C 29.86in /  1011.1hPa Calm     70% 0in /  0mm WeatherDisplay:10.37 W/m2
20:59 53.8 °F /  12.1 °C 45.3 °F /  7.4 °C 29.86in /  1011.1hPa ESE 1.2mph /  1.9km/h   73% 0in /  0mm WeatherDisplay:10.37 W/m2
21:04 53.4 °F /  11.9 °C 46 °F /  7.8 °C 29.86in /  1011.1hPa Calm     76% 0in /  0mm WeatherDisplay:10.37 W/m2
21:09 52.5 °F /  11.4 °C 45.2 °F /  7.3 °C 29.86in /  1011.1hPa NNW 2.8mph /  4.5km/h 1.4mph /  2.3km/h 76% 0in /  0mm WeatherDisplay:10.37 W/m2
21:14 52.3 °F /  11.3 °C 44.6 °F /  7 °C 29.86in /  1011.1hPa Calm     75% 0in /  0mm WeatherDisplay:10.37 W/m2
21:19 52 °F /  11.1 °C 44 °F /  6.7 °C 29.86in /  1011.1hPa NNE 4.6mph /  7.4km/h 4.2mph /  6.8km/h 74% 0in /  0mm WeatherDisplay:10.37 W/m2
21:24 52.2 °F /  11.2 °C 43.4 °F /  6.3 °C 29.86in /  1011.1hPa NNE 3.5mph /  5.6km/h 2.9mph /  4.7km/h 72% 0in /  0mm WeatherDisplay:10.37 W/m2
21:29 52.2 °F /  11.2 °C 43.1 °F /  6.2 °C 29.87in /  1011.4hPa North 3.5mph /  5.6km/h 1.7mph /  2.7km/h 71% 0in /  0mm WeatherDisplay:10.37 W/m2
21:34 52.3 °F /  11.3 °C 42.8 °F /  6 °C 29.87in /  1011.4hPa NNE 8.2mph /  13.2km/h 1.5mph /  2.4km/h 70% 0in /  0mm WeatherDisplay:10.37 W/m2
21:39 52.7 °F /  11.5 °C 43.2 °F /  6.2 °C 29.87in /  1011.4hPa NE 5.8mph /  9.3km/h 3.4mph /  5.5km/h 70% 0in /  0mm WeatherDisplay:10.37 W/m2
21:44 53.1 °F /  11.7 °C 43.2 °F /  6.2 °C 29.87in /  1011.4hPa NE 4.6mph /  7.4km/h 1.7mph /  2.7km/h 69% 0in /  0mm WeatherDisplay:10.37 W/m2
21:49 53.1 °F /  11.7 °C 43.6 °F /  6.4 °C 29.87in /  1011.4hPa Calm     70% 0in /  0mm WeatherDisplay:10.37 W/m2
21:54 52.9 °F /  11.6 °C 43 °F /  6.1 °C 29.86in /  1011.1hPa ESE 1.5mph /  2.4km/h 0.3mph /  0.5km/h 69% 0in /  0mm WeatherDisplay:10.37 W/m2
21:59 52.9 °F /  11.6 °C 43 °F /  6.1 °C 29.86in /  1011.1hPa Calm     69% 0in /  0mm WeatherDisplay:10.37 W/m2
22:04 53.4 °F /  11.9 °C 43.5 °F /  6.4 °C 29.86in /  1011.1hPa SE 4.6mph /  7.4km/h 0.9mph /  1.4km/h 69% 0in /  0mm WeatherDisplay:10.37 W/m2
22:09 53.2 °F /  11.8 °C 43.3 °F /  6.3 °C 29.87in /  1011.4hPa North 2.8mph /  4.5km/h 1.1mph /  1.8km/h 69% 0in /  0mm WeatherDisplay:10.37 W/m2
22:14 53.4 °F /  11.9 °C 43.5 °F /  6.4 °C 29.87in /  1011.4hPa SW 2.8mph /  4.5km/h 0.6mph /  1km/h 69% 0in /  0mm WeatherDisplay:10.37 W/m2
22:19 53.2 °F /  11.8 °C 43.7 °F /  6.5 °C 29.87in /  1011.4hPa Calm     70% 0in /  0mm WeatherDisplay:10.37 W/m2
22:24 53.2 °F /  11.8 °C 44 °F /  6.7 °C 29.87in /  1011.4hPa Calm     71% 0in /  0mm WeatherDisplay:10.37 W/m2
22:29 53.2 °F /  11.8 °C 43.3 °F /  6.3 °C 29.87in /  1011.4hPa SE 2.3mph /  3.7km/h 0.9mph /  1.4km/h 69% 0in /  0mm WeatherDisplay:10.37 W/m2
22:34 53.4 °F /  11.9 °C 42.7 °F /  5.9 °C 29.87in /  1011.4hPa ESE 4.2mph /  6.8km/h 2mph /  3.2km/h 67% 0in /  0mm WeatherDisplay:10.37 W/m2
22:39 53.6 °F /  12 °C 42.9 °F /  6.1 °C 29.87in /  1011.4hPa NNE 3.5mph /  5.6km/h 1.6mph /  2.6km/h 67% 0in /  0mm WeatherDisplay:10.37 W/m2
22:44 53.6 °F /  12 °C 42.9 °F /  6.1 °C 29.86in /  1011.1hPa Calm     67% 0in /  0mm WeatherDisplay:10.37 W/m2
22:49 53.6 °F /  12 °C 42.5 °F /  5.8 °C 29.86in /  1011.1hPa NNE 3.5mph /  5.6km/h 2.3mph /  3.7km/h 66% 0in /  0mm WeatherDisplay:10.37 W/m2
22:54 53.8 °F /  12.1 °C 42.7 °F /  5.9 °C 29.87in /  1011.4hPa NNE 4.2mph /  6.8km/h 2.2mph /  3.5km/h 66% 0in /  0mm WeatherDisplay:10.37 W/m2
22:59 53.8 °F /  12.1 °C 42.7 °F /  5.9 °C 29.87in /  1011.4hPa West 2.8mph /  4.5km/h 2.2mph /  3.5km/h 66% 0in /  0mm WeatherDisplay:10.37 W/m2
23:04 53.8 °F /  12.1 °C 42.7 °F /  5.9 °C 29.87in /  1011.4hPa North 3.5mph /  5.6km/h 2.5mph /  4km/h 66% 0in /  0mm WeatherDisplay:10.37 W/m2
23:09 53.8 °F /  12.1 °C 42.7 °F /  5.9 °C 29.87in /  1011.4hPa North 2.3mph /  3.7km/h 1.6mph /  2.6km/h 66% 0in /  0mm WeatherDisplay:10.37 W/m2
23:14 53.6 °F /  12 °C 43.3 °F /  6.3 °C 29.87in /  1011.4hPa Calm     68% 0in /  0mm WeatherDisplay:10.37 W/m2
23:19 53.4 °F /  11.9 °C 42.7 °F /  5.9 °C 29.86in /  1011.1hPa NE 2.3mph /  3.7km/h 1.3mph /  2.1km/h 67% 0in /  0mm WeatherDisplay:10.37 W/m2
23:24 53.2 °F /  11.8 °C 42.9 °F /  6.1 °C 29.86in /  1011.1hPa Calm     68% 0in /  0mm WeatherDisplay:10.37 W/m2
23:29 53.1 °F /  11.7 °C 43.6 °F /  6.4 °C 29.86in /  1011.1hPa NNE 3.5mph /  5.6km/h 0.2mph /  0.3km/h 70% 0in /  0mm WeatherDisplay:10.37 W/m2
23:34 52.9 °F /  11.6 °C 43 °F /  6.1 °C 29.87in /  1011.4hPa Calm     69% 0in /  0mm WeatherDisplay:10.37 W/m2
23:39 52.9 °F /  11.6 °C 43 °F /  6.1 °C 29.87in /  1011.4hPa West 2.3mph /  3.7km/h 0.2mph /  0.3km/h 69% 0in /  0mm WeatherDisplay:10.37 W/m2
23:44 52.7 °F /  11.5 °C 42.8 °F /  6 °C 29.86in /  1011.1hPa Calm     69% 0in /  0mm WeatherDisplay:10.37 W/m2
23:49 52.7 °F /  11.5 °C 43.2 °F /  6.2 °C 29.86in /  1011.1hPa Calm     70% 0in /  0mm WeatherDisplay:10.37 W/m2
23:54 52.7 °F /  11.5 °C 42.8 °F /  6 °C 29.86in /  1011.1hPa Calm     69% 0in /  0mm WeatherDisplay:10.37 W/m2
23:59 52.5 °F /  11.4 °C 44.1 °F /  6.7 °C 29.86in /  1011.1hPa Calm     73% 0in /  0mm WeatherDisplay:10.37 W/m2
Cohasset, California, USA
Compliments of Weather Underground - 2.25 mb